sensor_id;sensor_type;location;lat;lon;timestamp;temperature;humidity
53802;DHT22;39709;53.334;6.534;2024-03-17T00:00:20;4.70;99.90
53802;DHT22;39709;53.334;6.534;2024-03-17T00:02:46;4.40;99.90
53802;DHT22;39709;53.334;6.534;2024-03-17T00:05:12;4.40;99.90
53802;DHT22;39709;53.334;6.534;2024-03-17T00:07:41;4.40;99.90
53802;DHT22;39709;53.334;6.534;2024-03-17T00:10:07;4.30;99.90
53802;DHT22;39709;53.334;6.534;2024-03-17T00:12:33;4.30;99.90
53802;DHT22;39709;53.334;6.534;2024-03-17T00:14:59;4.20;99.90
53802;DHT22;39709;53.334;6.534;2024-03-17T00:17:24;4.20;99.90
53802;DHT22;39709;53.334;6.534;2024-03-17T00:19:50;4.20;99.90
53802;DHT22;39709;53.334;6.534;2024-03-17T00:22:16;4.10;99.90
53802;DHT22;39709;53.334;6.534;2024-03-17T00:24:42;4.10;99.90
53802;DHT22;39709;53.334;6.534;2024-03-17T00:27:08;4.40;99.90
53802;DHT22;39709;53.334;6.534;2024-03-17T00:29:34;4.30;99.90
53802;DHT22;39709;53.334;6.534;2024-03-17T00:32:00;4.00;99.90
53802;DHT22;39709;53.334;6.534;2024-03-17T00:34:25;3.80;99.90
53802;DHT22;39709;53.334;6.534;2024-03-17T00:36:51;3.80;99.90
53802;DHT22;39709;53.334;6.534;2024-03-17T00:39:17;3.90;99.90
53802;DHT22;39709;53.334;6.534;2024-03-17T00:41:43;3.90;99.90
53802;DHT22;39709;53.334;6.534;2024-03-17T00:44:09;4.30;99.90
53802;DHT22;39709;53.334;6.534;2024-03-17T00:46:34;3.90;99.90
53802;DHT22;39709;53.334;6.534;2024-03-17T00:49:00;3.80;99.90
53802;DHT22;39709;53.334;6.534;2024-03-17T00:51:25;3.80;99.90
53802;DHT22;39709;53.334;6.534;2024-03-17T00:53:51;4.20;99.90
53802;DHT22;39709;53.334;6.534;2024-03-17T00:56:17;3.70;99.90
53802;DHT22;39709;53.334;6.534;2024-03-17T00:58:42;3.60;99.90
53802;DHT22;39709;53.334;6.534;2024-03-17T01:01:09;4.50;99.90
53802;DHT22;39709;53.334;6.534;2024-03-17T01:03:35;3.50;99.90
53802;DHT22;39709;53.334;6.534;2024-03-17T01:06:03;3.50;99.90
53802;DHT22;39709;53.334;6.534;2024-03-17T01:08:29;3.80;99.90
53802;DHT22;39709;53.334;6.534;2024-03-17T01:10:55;3.40;99.90
53802;DHT22;39709;53.334;6.534;2024-03-17T01:13:21;3.40;99.90
53802;DHT22;39709;53.334;6.534;2024-03-17T01:15:50;3.30;99.90
53802;DHT22;39709;53.334;6.534;2024-03-17T01:18:16;3.40;99.90
53802;DHT22;39709;53.334;6.534;2024-03-17T01:20:42;3.20;99.90
53802;DHT22;39709;53.334;6.534;2024-03-17T01:23:08;3.30;99.90
53802;DHT22;39709;53.334;6.534;2024-03-17T01:25:34;3.10;99.90
53802;DHT22;39709;53.334;6.534;2024-03-17T01:28:05;3.40;99.90
53802;DHT22;39709;53.334;6.534;2024-03-17T01:30:32;3.00;99.90
53802;DHT22;39709;53.334;6.534;2024-03-17T01:32:58;3.00;99.90
53802;DHT22;39709;53.334;6.534;2024-03-17T01:35:25;3.00;99.90
53802;DHT22;39709;53.334;6.534;2024-03-17T01:37:51;2.90;99.90
53802;DHT22;39709;53.334;6.534;2024-03-17T01:40:16;2.80;99.90
53802;DHT22;39709;53.334;6.534;2024-03-17T01:42:42;3.60;99.90
53802;DHT22;39709;53.334;6.534;2024-03-17T01:47:42;2.70;99.90
53802;DHT22;39709;53.334;6.534;2024-03-17T01:50:08;3.40;99.90
53802;DHT22;39709;53.334;6.534;2024-03-17T01:52:34;2.60;99.90
53802;DHT22;39709;53.334;6.534;2024-03-17T01:55:00;2.70;99.90
53802;DHT22;39709;53.334;6.534;2024-03-17T01:57:25;2.60;99.90
53802;DHT22;39709;53.334;6.534;2024-03-17T01:59:51;2.60;99.90
53802;DHT22;39709;53.334;6.534;2024-03-17T02:02:17;2.50;99.90
53802;DHT22;39709;53.334;6.534;2024-03-17T02:04:42;3.60;99.90
53802;DHT22;39709;53.334;6.534;2024-03-17T02:07:08;2.90;99.90
53802;DHT22;39709;53.334;6.534;2024-03-17T02:09:33;2.40;99.90
53802;DHT22;39709;53.334;6.534;2024-03-17T02:11:59;2.80;99.90
53802;DHT22;39709;53.334;6.534;2024-03-17T02:14:24;2.40;99.90
53802;DHT22;39709;53.334;6.534;2024-03-17T02:16:50;3.10;99.90
53802;DHT22;39709;53.334;6.534;2024-03-17T02:19:16;2.50;99.90
53802;DHT22;39709;53.334;6.534;2024-03-17T02:21:41;2.40;99.90
53802;DHT22;39709;53.334;6.534;2024-03-17T02:24:07;3.70;99.90
53802;DHT22;39709;53.334;6.534;2024-03-17T02:26:33;2.40;99.90
53802;DHT22;39709;53.334;6.534;2024-03-17T02:29:00;2.40;99.90
53802;DHT22;39709;53.334;6.534;2024-03-17T02:31:26;2.40;99.90
53802;DHT22;39709;53.334;6.534;2024-03-17T02:33:51;3.00;99.90
53802;DHT22;39709;53.334;6.534;2024-03-17T02:36:17;2.40;99.90
53802;DHT22;39709;53.334;6.534;2024-03-17T02:38:43;2.30;99.90
53802;DHT22;39709;53.334;6.534;2024-03-17T02:41:27;2.70;99.90
53802;DHT22;39709;53.334;6.534;2024-03-17T02:43:53;2.30;99.90
53802;DHT22;39709;53.334;6.534;2024-03-17T02:46:19;2.30;99.90
53802;DHT22;39709;53.334;6.534;2024-03-17T02:48:47;2.30;99.90
53802;DHT22;39709;53.334;6.534;2024-03-17T02:51:13;2.70;99.90
53802;DHT22;39709;53.334;6.534;2024-03-17T02:53:46;3.70;99.90
53802;DHT22;39709;53.334;6.534;2024-03-17T02:56:12;2.20;99.90
53802;DHT22;39709;53.334;6.534;2024-03-17T02:58:39;3.20;99.90
53802;DHT22;39709;53.334;6.534;2024-03-17T03:01:05;2.30;99.90
53802;DHT22;39709;53.334;6.534;2024-03-17T03:03:31;2.40;99.90
53802;DHT22;39709;53.334;6.534;2024-03-17T03:05:57;2.40;99.90
53802;DHT22;39709;53.334;6.534;2024-03-17T03:08:22;2.40;99.90
53802;DHT22;39709;53.334;6.534;2024-03-17T03:10:48;2.50;99.90
53802;DHT22;39709;53.334;6.534;2024-03-17T03:13:14;2.50;99.90
53802;DHT22;39709;53.334;6.534;2024-03-17T03:15:40;2.50;99.90
53802;DHT22;39709;53.334;6.534;2024-03-17T03:18:05;2.50;99.90
53802;DHT22;39709;53.334;6.534;2024-03-17T03:20:31;2.50;99.90
53802;DHT22;39709;53.334;6.534;2024-03-17T03:22:56;2.50;99.90
53802;DHT22;39709;53.334;6.534;2024-03-17T03:25:22;2.60;99.90
53802;DHT22;39709;53.334;6.534;2024-03-17T03:27:48;2.70;99.90
53802;DHT22;39709;53.334;6.534;2024-03-17T03:30:14;3.20;99.90
53802;DHT22;39709;53.334;6.534;2024-03-17T03:32:41;2.80;99.90
53802;DHT22;39709;53.334;6.534;2024-03-17T03:35:07;3.10;99.90
53802;DHT22;39709;53.334;6.534;2024-03-17T03:37:33;2.80;99.90
53802;DHT22;39709;53.334;6.534;2024-03-17T03:39:59;2.80;99.90
53802;DHT22;39709;53.334;6.534;2024-03-17T03:42:24;3.20;99.90
53802;DHT22;39709;53.334;6.534;2024-03-17T03:44:50;2.80;99.90
53802;DHT22;39709;53.334;6.534;2024-03-17T03:47:15;2.80;99.90
53802;DHT22;39709;53.334;6.534;2024-03-17T03:49:41;2.80;99.90
53802;DHT22;39709;53.334;6.534;2024-03-17T03:52:06;2.80;99.90
53802;DHT22;39709;53.334;6.534;2024-03-17T03:54:33;2.80;99.90
53802;DHT22;39709;53.334;6.534;2024-03-17T03:56:59;3.20;99.90
53802;DHT22;39709;53.334;6.534;2024-03-17T03:59:25;3.10;99.90
53802;DHT22;39709;53.334;6.534;2024-03-17T04:01:50;3.30;99.90
53802;DHT22;39709;53.334;6.534;2024-03-17T04:04:16;2.80;99.90
53802;DHT22;39709;53.334;6.534;2024-03-17T04:06:41;2.90;99.90
53802;DHT22;39709;53.334;6.534;2024-03-17T04:09:07;2.90;99.90
53802;DHT22;39709;53.334;6.534;2024-03-17T04:11:34;2.90;99.90
53802;DHT22;39709;53.334;6.534;2024-03-17T04:14:00;3.00;99.90
53802;DHT22;39709;53.334;6.534;2024-03-17T04:16:26;3.30;99.90
53802;DHT22;39709;53.334;6.534;2024-03-17T04:18:51;3.00;99.90
53802;DHT22;39709;53.334;6.534;2024-03-17T04:21:17;4.40;99.90
53802;DHT22;39709;53.334;6.534;2024-03-17T04:23:43;3.10;99.90
53802;DHT22;39709;53.334;6.534;2024-03-17T04:26:08;3.10;99.90
53802;DHT22;39709;53.334;6.534;2024-03-17T04:28:34;3.70;99.90
53802;DHT22;39709;53.334;6.534;2024-03-17T04:31:05;3.20;99.90
53802;DHT22;39709;53.334;6.534;2024-03-17T04:33:31;3.20;99.90
53802;DHT22;39709;53.334;6.534;2024-03-17T04:35:57;3.80;99.90
53802;DHT22;39709;53.334;6.534;2024-03-17T04:38:23;3.60;99.90
53802;DHT22;39709;53.334;6.534;2024-03-17T04:40:49;3.20;99.90
53802;DHT22;39709;53.334;6.534;2024-03-17T04:43:15;3.30;99.90
53802;DHT22;39709;53.334;6.534;2024-03-17T04:45:41;3.30;99.90
53802;DHT22;39709;53.334;6.534;2024-03-17T04:48:07;3.20;99.90
53802;DHT22;39709;53.334;6.534;2024-03-17T04:50:32;3.30;99.90
53802;DHT22;39709;53.334;6.534;2024-03-17T04:52:58;3.50;99.90
53802;DHT22;39709;53.334;6.534;2024-03-17T04:55:24;3.50;99.90
53802;DHT22;39709;53.334;6.534;2024-03-17T04:57:50;3.30;99.90
53802;DHT22;39709;53.334;6.534;2024-03-17T05:00:15;3.30;99.90
53802;DHT22;39709;53.334;6.534;2024-03-17T05:02:43;3.30;99.90
53802;DHT22;39709;53.334;6.534;2024-03-17T05:05:09;4.30;99.90
53802;DHT22;39709;53.334;6.534;2024-03-17T05:07:36;3.30;99.90
53802;DHT22;39709;53.334;6.534;2024-03-17T05:10:02;3.80;99.90
53802;DHT22;39709;53.334;6.534;2024-03-17T05:12:27;3.40;99.90
53802;DHT22;39709;53.334;6.534;2024-03-17T05:14:53;4.70;99.90
53802;DHT22;39709;53.334;6.534;2024-03-17T05:17:19;3.40;99.90
53802;DHT22;39709;53.334;6.534;2024-03-17T05:19:44;3.90;99.90
53802;DHT22;39709;53.334;6.534;2024-03-17T05:22:10;4.00;99.90
53802;DHT22;39709;53.334;6.534;2024-03-17T05:24:36;4.20;99.90
53802;DHT22;39709;53.334;6.534;2024-03-17T05:27:01;3.40;99.90
53802;DHT22;39709;53.334;6.534;2024-03-17T05:29:27;3.40;99.90
53802;DHT22;39709;53.334;6.534;2024-03-17T05:31:52;3.60;99.90
53802;DHT22;39709;53.334;6.534;2024-03-17T05:34:18;3.60;99.90
53802;DHT22;39709;53.334;6.534;2024-03-17T05:36:44;3.50;99.90
53802;DHT22;39709;53.334;6.534;2024-03-17T05:39:09;3.40;99.90
53802;DHT22;39709;53.334;6.534;2024-03-17T05:41:35;3.50;99.90
53802;DHT22;39709;53.334;6.534;2024-03-17T05:44:00;3.50;99.90
53802;DHT22;39709;53.334;6.534;2024-03-17T05:46:28;3.50;99.90
53802;DHT22;39709;53.334;6.534;2024-03-17T05:48:54;3.50;99.90
53802;DHT22;39709;53.334;6.534;2024-03-17T05:51:20;3.80;99.90
53802;DHT22;39709;53.334;6.534;2024-03-17T05:53:46;3.60;99.90
53802;DHT22;39709;53.334;6.534;2024-03-17T05:56:11;4.20;99.90
53802;DHT22;39709;53.334;6.534;2024-03-17T05:58:38;3.60;99.90
53802;DHT22;39709;53.334;6.534;2024-03-17T06:01:03;3.60;99.90
53802;DHT22;39709;53.334;6.534;2024-03-17T06:03:29;3.60;99.90
53802;DHT22;39709;53.334;6.534;2024-03-17T06:05:57;3.60;99.90
53802;DHT22;39709;53.334;6.534;2024-03-17T06:08:23;3.60;99.90
53802;DHT22;39709;53.334;6.534;2024-03-17T06:10:49;3.70;99.90
53802;DHT22;39709;53.334;6.534;2024-03-17T06:13:15;3.70;99.90
53802;DHT22;39709;53.334;6.534;2024-03-17T06:15:45;3.70;99.90
53802;DHT22;39709;53.334;6.534;2024-03-17T06:18:14;3.70;99.90
53802;DHT22;39709;53.334;6.534;2024-03-17T06:20:43;3.80;99.90
53802;DHT22;39709;53.334;6.534;2024-03-17T06:23:09;3.80;99.90
53802;DHT22;39709;53.334;6.534;2024-03-17T06:25:53;3.90;99.90
53802;DHT22;39709;53.334;6.534;2024-03-17T06:28:22;3.90;99.90
53802;DHT22;39709;53.334;6.534;2024-03-17T06:30:54;4.80;99.90
53802;DHT22;39709;53.334;6.534;2024-03-17T06:33:20;4.00;99.90
53802;DHT22;39709;53.334;6.534;2024-03-17T06:35:46;4.50;99.90
53802;DHT22;39709;53.334;6.534;2024-03-17T06:38:15;4.20;99.90
53802;DHT22;39709;53.334;6.534;2024-03-17T06:40:41;4.20;99.90
53802;DHT22;39709;53.334;6.534;2024-03-17T06:43:07;4.80;99.90
53802;DHT22;39709;53.334;6.534;2024-03-17T06:45:33;4.20;99.90
53802;DHT22;39709;53.334;6.534;2024-03-17T06:47:59;4.90;99.90
53802;DHT22;39709;53.334;6.534;2024-03-17T06:50:24;4.30;99.90
53802;DHT22;39709;53.334;6.534;2024-03-17T06:52:50;4.40;99.90
53802;DHT22;39709;53.334;6.534;2024-03-17T06:55:17;4.40;99.90
53802;DHT22;39709;53.334;6.534;2024-03-17T06:57:43;4.50;99.90
53802;DHT22;39709;53.334;6.534;2024-03-17T07:00:10;4.80;99.90
53802;DHT22;39709;53.334;6.534;2024-03-17T07:02:42;4.60;99.90
53802;DHT22;39709;53.334;6.534;2024-03-17T07:05:12;4.60;99.90
53802;DHT22;39709;53.334;6.534;2024-03-17T07:07:40;4.70;99.90
53802;DHT22;39709;53.334;6.534;2024-03-17T07:10:05;5.30;99.90
53802;DHT22;39709;53.334;6.534;2024-03-17T07:12:31;4.80;99.90
53802;DHT22;39709;53.334;6.534;2024-03-17T07:14:56;5.00;99.90
53802;DHT22;39709;53.334;6.534;2024-03-17T07:17:22;5.00;99.90
53802;DHT22;39709;53.334;6.534;2024-03-17T07:19:48;5.10;99.90
53802;DHT22;39709;53.334;6.534;2024-03-17T07:22:14;5.20;99.90
53802;DHT22;39709;53.334;6.534;2024-03-17T07:24:40;5.30;99.90
53802;DHT22;39709;53.334;6.534;2024-03-17T07:27:05;5.80;99.90
53802;DHT22;39709;53.334;6.534;2024-03-17T07:29:34;5.40;99.90
53802;DHT22;39709;53.334;6.534;2024-03-17T07:31:59;5.40;99.90
53802;DHT22;39709;53.334;6.534;2024-03-17T07:34:25;5.50;99.90
53802;DHT22;39709;53.334;6.534;2024-03-17T07:36:50;5.60;99.90
53802;DHT22;39709;53.334;6.534;2024-03-17T07:39:16;5.60;99.90
53802;DHT22;39709;53.334;6.534;2024-03-17T07:41:42;5.70;99.90
53802;DHT22;39709;53.334;6.534;2024-03-17T07:44:07;5.70;99.90
53802;DHT22;39709;53.334;6.534;2024-03-17T07:46:33;5.70;99.90
53802;DHT22;39709;53.334;6.534;2024-03-17T07:48:58;5.80;99.90
53802;DHT22;39709;53.334;6.534;2024-03-17T07:51:24;5.80;99.90
53802;DHT22;39709;53.334;6.534;2024-03-17T07:53:49;5.80;99.90
53802;DHT22;39709;53.334;6.534;2024-03-17T07:56:17;6.00;99.90
53802;DHT22;39709;53.334;6.534;2024-03-17T07:58:43;6.00;99.90
53802;DHT22;39709;53.334;6.534;2024-03-17T08:01:09;6.00;99.90
53802;DHT22;39709;53.334;6.534;2024-03-17T08:03:36;6.00;99.90
53802;DHT22;39709;53.334;6.534;2024-03-17T08:06:02;6.10;99.90
53802;DHT22;39709;53.334;6.534;2024-03-17T08:08:28;6.10;99.90
53802;DHT22;39709;53.334;6.534;2024-03-17T08:10:54;6.10;99.90
53802;DHT22;39709;53.334;6.534;2024-03-17T08:13:20;6.20;99.90
53802;DHT22;39709;53.334;6.534;2024-03-17T08:15:47;6.30;99.90
53802;DHT22;39709;53.334;6.534;2024-03-17T08:18:12;6.50;99.90
53802;DHT22;39709;53.334;6.534;2024-03-17T08:20:41;6.40;99.90
53802;DHT22;39709;53.334;6.534;2024-03-17T08:23:11;6.40;99.90
53802;DHT22;39709;53.334;6.534;2024-03-17T08:25:37;6.40;99.90
53802;DHT22;39709;53.334;6.534;2024-03-17T08:28:03;6.50;99.90
53802;DHT22;39709;53.334;6.534;2024-03-17T08:30:29;6.60;99.90
53802;DHT22;39709;53.334;6.534;2024-03-17T08:32:56;6.60;99.90
53802;DHT22;39709;53.334;6.534;2024-03-17T08:35:21;6.70;99.90
53802;DHT22;39709;53.334;6.534;2024-03-17T08:37:47;6.80;99.90
53802;DHT22;39709;53.334;6.534;2024-03-17T08:40:13;6.90;99.90
53802;DHT22;39709;53.334;6.534;2024-03-17T08:42:39;6.90;99.90
53802;DHT22;39709;53.334;6.534;2024-03-17T08:45:05;7.10;99.90
53802;DHT22;39709;53.334;6.534;2024-03-17T08:47:30;7.00;99.90
53802;DHT22;39709;53.334;6.534;2024-03-17T08:49:56;7.00;99.90
53802;DHT22;39709;53.334;6.534;2024-03-17T08:52:23;7.30;99.90
53802;DHT22;39709;53.334;6.534;2024-03-17T08:54:49;7.20;99.90
53802;DHT22;39709;53.334;6.534;2024-03-17T08:57:17;7.30;99.90
53802;DHT22;39709;53.334;6.534;2024-03-17T08:59:45;7.30;99.90
53802;DHT22;39709;53.334;6.534;2024-03-17T09:02:11;7.40;99.90
53802;DHT22;39709;53.334;6.534;2024-03-17T09:04:38;7.50;99.90
53802;DHT22;39709;53.334;6.534;2024-03-17T09:07:03;7.60;99.90
53802;DHT22;39709;53.334;6.534;2024-03-17T09:09:29;7.70;99.90
53802;DHT22;39709;53.334;6.534;2024-03-17T09:11:55;7.70;99.90
53802;DHT22;39709;53.334;6.534;2024-03-17T09:14:20;7.70;99.90
53802;DHT22;39709;53.334;6.534;2024-03-17T09:16:47;7.80;99.90
53802;DHT22;39709;53.334;6.534;2024-03-17T09:19:13;7.90;99.90
53802;DHT22;39709;53.334;6.534;2024-03-17T09:21:38;7.90;99.90
53802;DHT22;39709;53.334;6.534;2024-03-17T09:24:05;7.90;99.90
53802;DHT22;39709;53.334;6.534;2024-03-17T09:26:32;8.00;99.90
53802;DHT22;39709;53.334;6.534;2024-03-17T09:28:59;8.10;99.90
53802;DHT22;39709;53.334;6.534;2024-03-17T09:31:25;8.20;99.90
53802;DHT22;39709;53.334;6.534;2024-03-17T09:33:51;8.20;99.90
53802;DHT22;39709;53.334;6.534;2024-03-17T09:36:17;8.20;99.90
53802;DHT22;39709;53.334;6.534;2024-03-17T09:38:43;8.50;99.90
53802;DHT22;39709;53.334;6.534;2024-03-17T09:41:20;8.50;99.90
53802;DHT22;39709;53.334;6.534;2024-03-17T09:43:47;8.50;99.90
53802;DHT22;39709;53.334;6.534;2024-03-17T09:46:13;8.60;99.90
53802;DHT22;39709;53.334;6.534;2024-03-17T09:48:39;8.70;99.90
53802;DHT22;39709;53.334;6.534;2024-03-17T09:51:05;8.90;99.90
53802;DHT22;39709;53.334;6.534;2024-03-17T09:53:31;8.70;99.90
53802;DHT22;39709;53.334;6.534;2024-03-17T09:55:58;8.90;99.90
53802;DHT22;39709;53.334;6.534;2024-03-17T09:58:24;9.00;99.90
53802;DHT22;39709;53.334;6.534;2024-03-17T10:00:50;8.80;99.90
53802;DHT22;39709;53.334;6.534;2024-03-17T10:06:00;8.70;99.90
53802;DHT22;39709;53.334;6.534;2024-03-17T10:08:25;8.80;99.90
53802;DHT22;39709;53.334;6.534;2024-03-17T10:10:54;8.90;99.90
53802;DHT22;39709;53.334;6.534;2024-03-17T10:13:19;8.90;99.90
53802;DHT22;39709;53.334;6.534;2024-03-17T10:15:48;8.90;99.90
53802;DHT22;39709;53.334;6.534;2024-03-17T10:18:23;8.90;99.90
53802;DHT22;39709;53.334;6.534;2024-03-17T10:20:49;8.90;99.90
53802;DHT22;39709;53.334;6.534;2024-03-17T10:23:20;8.90;99.90
53802;DHT22;39709;53.334;6.534;2024-03-17T10:25:46;8.80;99.90
53802;DHT22;39709;53.334;6.534;2024-03-17T10:28:12;8.90;99.90
53802;DHT22;39709;53.334;6.534;2024-03-17T10:30:38;8.90;99.90
53802;DHT22;39709;53.334;6.534;2024-03-17T10:33:05;8.80;99.90
53802;DHT22;39709;53.334;6.534;2024-03-17T10:35:36;9.00;99.90
53802;DHT22;39709;53.334;6.534;2024-03-17T10:38:07;9.00;99.90
53802;DHT22;39709;53.334;6.534;2024-03-17T10:40:33;9.00;99.90
53802;DHT22;39709;53.334;6.534;2024-03-17T10:43:01;9.10;99.90
53802;DHT22;39709;53.334;6.534;2024-03-17T10:45:27;9.10;99.90
53802;DHT22;39709;53.334;6.534;2024-03-17T10:47:59;9.10;99.90
53802;DHT22;39709;53.334;6.534;2024-03-17T10:50:26;9.20;99.90
53802;DHT22;39709;53.334;6.534;2024-03-17T10:52:54;9.20;99.90
53802;DHT22;39709;53.334;6.534;2024-03-17T10:55:21;9.20;99.90
53802;DHT22;39709;53.334;6.534;2024-03-17T10:57:48;9.20;99.90
53802;DHT22;39709;53.334;6.534;2024-03-17T11:00:14;9.10;99.90
53802;DHT22;39709;53.334;6.534;2024-03-17T11:02:43;9.20;99.90
53802;DHT22;39709;53.334;6.534;2024-03-17T11:05:16;9.30;99.90
53802;DHT22;39709;53.334;6.534;2024-03-17T11:07:43;9.30;99.90
53802;DHT22;39709;53.334;6.534;2024-03-17T11:10:21;9.40;99.90
53802;DHT22;39709;53.334;6.534;2024-03-17T11:12:48;9.60;99.90
53802;DHT22;39709;53.334;6.534;2024-03-17T11:17:55;9.90;99.90
53802;DHT22;39709;53.334;6.534;2024-03-17T11:20:26;9.70;99.90
53802;DHT22;39709;53.334;6.534;2024-03-17T11:22:52;9.80;99.90
53802;DHT22;39709;53.334;6.534;2024-03-17T11:35:50;10.30;99.90
53802;DHT22;39709;53.334;6.534;2024-03-17T11:43:45;10.50;99.90
53802;DHT22;39709;53.334;6.534;2024-03-17T11:46:10;10.60;99.90
53802;DHT22;39709;53.334;6.534;2024-03-17T11:48:36;10.50;99.90
53802;DHT22;39709;53.334;6.534;2024-03-17T11:51:02;10.60;99.90
53802;DHT22;39709;53.334;6.534;2024-03-17T11:53:29;10.70;99.90
53802;DHT22;39709;53.334;6.534;2024-03-17T11:55:55;10.70;99.90
53802;DHT22;39709;53.334;6.534;2024-03-17T11:58:20;10.80;99.90
53802;DHT22;39709;53.334;6.534;2024-03-17T12:00:53;10.90;99.90
53802;DHT22;39709;53.334;6.534;2024-03-17T12:03:19;11.00;99.90
53802;DHT22;39709;53.334;6.534;2024-03-17T12:05:45;10.80;99.90
53802;DHT22;39709;53.334;6.534;2024-03-17T12:08:19;11.00;99.90
53802;DHT22;39709;53.334;6.534;2024-03-17T12:10:48;11.00;99.90
53802;DHT22;39709;53.334;6.534;2024-03-17T12:13:14;11.10;99.90
53802;DHT22;39709;53.334;6.534;2024-03-17T12:15:40;11.10;99.90
53802;DHT22;39709;53.334;6.534;2024-03-17T12:18:19;11.20;99.90
53802;DHT22;39709;53.334;6.534;2024-03-17T12:20:47;11.30;99.90
53802;DHT22;39709;53.334;6.534;2024-03-17T12:23:13;11.30;99.90
53802;DHT22;39709;53.334;6.534;2024-03-17T12:25:44;11.30;99.90
53802;DHT22;39709;53.334;6.534;2024-03-17T12:28:14;11.30;99.90
53802;DHT22;39709;53.334;6.534;2024-03-17T12:30:40;11.40;99.90
53802;DHT22;39709;53.334;6.534;2024-03-17T12:33:07;11.30;99.90
53802;DHT22;39709;53.334;6.534;2024-03-17T12:35:34;11.60;99.90
53802;DHT22;39709;53.334;6.534;2024-03-17T12:38:00;11.70;99.90
53802;DHT22;39709;53.334;6.534;2024-03-17T12:40:25;11.70;99.90
53802;DHT22;39709;53.334;6.534;2024-03-17T12:42:54;11.80;99.90
53802;DHT22;39709;53.334;6.534;2024-03-17T12:45:23;11.80;99.90
53802;DHT22;39709;53.334;6.534;2024-03-17T12:47:49;11.80;99.90
53802;DHT22;39709;53.334;6.534;2024-03-17T12:50:15;10.70;99.90
53802;DHT22;39709;53.334;6.534;2024-03-17T12:52:43;11.80;99.90
53802;DHT22;39709;53.334;6.534;2024-03-17T12:55:17;11.70;99.90
53802;DHT22;39709;53.334;6.534;2024-03-17T13:00:47;11.80;99.90
53802;DHT22;39709;53.334;6.534;2024-03-17T13:03:23;11.90;99.90
53802;DHT22;39709;53.334;6.534;2024-03-17T13:05:49;11.80;99.90
53802;DHT22;39709;53.334;6.534;2024-03-17T13:08:14;12.00;99.90
53802;DHT22;39709;53.334;6.534;2024-03-17T13:10:40;12.10;99.90
53802;DHT22;39709;53.334;6.534;2024-03-17T13:13:08;12.10;99.90
53802;DHT22;39709;53.334;6.534;2024-03-17T13:15:34;12.10;99.90
53802;DHT22;39709;53.334;6.534;2024-03-17T13:18:02;12.10;99.90
53802;DHT22;39709;53.334;6.534;2024-03-17T13:20:29;12.10;99.90
53802;DHT22;39709;53.334;6.534;2024-03-17T13:22:56;12.10;99.90
53802;DHT22;39709;53.334;6.534;2024-03-17T13:25:23;12.10;99.90
53802;DHT22;39709;53.334;6.534;2024-03-17T13:27:51;11.90;99.90
53802;DHT22;39709;53.334;6.534;2024-03-17T13:30:18;11.90;99.90
53802;DHT22;39709;53.334;6.534;2024-03-17T13:32:44;11.80;99.90
53802;DHT22;39709;53.334;6.534;2024-03-17T13:35:17;11.80;99.90
53802;DHT22;39709;53.334;6.534;2024-03-17T13:37:44;11.90;99.90
53802;DHT22;39709;53.334;6.534;2024-03-17T13:40:10;11.90;99.90
53802;DHT22;39709;53.334;6.534;2024-03-17T13:42:38;11.70;99.90
53802;DHT22;39709;53.334;6.534;2024-03-17T13:45:04;11.70;99.90
53802;DHT22;39709;53.334;6.534;2024-03-17T13:47:31;11.80;99.90
53802;DHT22;39709;53.334;6.534;2024-03-17T13:49:58;11.70;99.90
53802;DHT22;39709;53.334;6.534;2024-03-17T13:52:23;11.80;99.90
53802;DHT22;39709;53.334;6.534;2024-03-17T13:54:49;11.60;99.90
53802;DHT22;39709;53.334;6.534;2024-03-17T13:57:15;11.60;99.90
53802;DHT22;39709;53.334;6.534;2024-03-17T13:59:42;11.60;99.90
53802;DHT22;39709;53.334;6.534;2024-03-17T14:02:09;11.50;99.90
53802;DHT22;39709;53.334;6.534;2024-03-17T14:04:37;11.50;99.90
53802;DHT22;39709;53.334;6.534;2024-03-17T14:07:02;11.60;99.90
53802;DHT22;39709;53.334;6.534;2024-03-17T14:09:29;11.50;99.90
53802;DHT22;39709;53.334;6.534;2024-03-17T14:11:55;11.50;99.90
53802;DHT22;39709;53.334;6.534;2024-03-17T14:14:22;11.40;99.90
53802;DHT22;39709;53.334;6.534;2024-03-17T14:16:48;11.50;99.90
53802;DHT22;39709;53.334;6.534;2024-03-17T14:19:13;11.50;99.90
53802;DHT22;39709;53.334;6.534;2024-03-17T14:21:39;11.50;99.90
53802;DHT22;39709;53.334;6.534;2024-03-17T14:24:04;11.60;99.90
53802;DHT22;39709;53.334;6.534;2024-03-17T14:26:33;11.50;99.90
53802;DHT22;39709;53.334;6.534;2024-03-17T14:28:59;11.60;99.90
53802;DHT22;39709;53.334;6.534;2024-03-17T14:31:25;11.60;99.90
53802;DHT22;39709;53.334;6.534;2024-03-17T14:33:50;11.60;99.90
53802;DHT22;39709;53.334;6.534;2024-03-17T14:36:16;11.60;99.90
53802;DHT22;39709;53.334;6.534;2024-03-17T14:38:43;11.40;99.90
53802;DHT22;39709;53.334;6.534;2024-03-17T14:41:08;11.50;99.90
53802;DHT22;39709;53.334;6.534;2024-03-17T14:43:35;11.50;99.90
53802;DHT22;39709;53.334;6.534;2024-03-17T14:46:04;11.50;99.90
53802;DHT22;39709;53.334;6.534;2024-03-17T14:48:29;11.80;99.90
53802;DHT22;39709;53.334;6.534;2024-03-17T14:50:55;11.50;99.90
53802;DHT22;39709;53.334;6.534;2024-03-17T14:53:20;11.50;99.90
53802;DHT22;39709;53.334;6.534;2024-03-17T14:55:46;11.50;99.90
53802;DHT22;39709;53.334;6.534;2024-03-17T14:58:11;11.60;99.90
53802;DHT22;39709;53.334;6.534;2024-03-17T15:00:37;11.50;99.90
53802;DHT22;39709;53.334;6.534;2024-03-17T15:03:03;11.60;99.90
53802;DHT22;39709;53.334;6.534;2024-03-17T15:05:31;11.50;99.90
53802;DHT22;39709;53.334;6.534;2024-03-17T15:07:57;11.30;99.90
53802;DHT22;39709;53.334;6.534;2024-03-17T15:10:23;11.30;99.90
53802;DHT22;39709;53.334;6.534;2024-03-17T15:12:49;11.30;99.90
53802;DHT22;39709;53.334;6.534;2024-03-17T15:15:14;11.40;99.90
53802;DHT22;39709;53.334;6.534;2024-03-17T15:17:40;11.40;99.90
53802;DHT22;39709;53.334;6.534;2024-03-17T15:20:06;11.30;99.90
53802;DHT22;39709;53.334;6.534;2024-03-17T15:22:47;11.40;99.90
53802;DHT22;39709;53.334;6.534;2024-03-17T15:25:14;11.30;99.90
53802;DHT22;39709;53.334;6.534;2024-03-17T15:27:43;11.20;99.90
53802;DHT22;39709;53.334;6.534;2024-03-17T15:30:14;11.30;99.90
53802;DHT22;39709;53.334;6.534;2024-03-17T15:32:41;11.20;99.90
53802;DHT22;39709;53.334;6.534;2024-03-17T15:35:07;11.20;99.90
53802;DHT22;39709;53.334;6.534;2024-03-17T15:37:33;11.10;99.90
53802;DHT22;39709;53.334;6.534;2024-03-17T15:39:58;11.20;99.90
53802;DHT22;39709;53.334;6.534;2024-03-17T15:42:24;11.20;99.90
53802;DHT22;39709;53.334;6.534;2024-03-17T15:44:50;11.10;99.90
53802;DHT22;39709;53.334;6.534;2024-03-17T15:47:16;11.10;99.90
53802;DHT22;39709;53.334;6.534;2024-03-17T15:49:41;11.10;99.90
53802;DHT22;39709;53.334;6.534;2024-03-17T15:52:07;11.00;99.90
53802;DHT22;39709;53.334;6.534;2024-03-17T15:54:33;11.00;99.90
53802;DHT22;39709;53.334;6.534;2024-03-17T15:57:00;11.00;99.90
53802;DHT22;39709;53.334;6.534;2024-03-17T15:59:26;10.90;99.90
53802;DHT22;39709;53.334;6.534;2024-03-17T16:01:51;11.00;99.90
53802;DHT22;39709;53.334;6.534;2024-03-17T16:04:18;11.00;99.90